Terminal Aerodrome Forecast
Issued by NWS

Home | Current Version | Previous Version | Text Only | Print | Product List | Glossary On
Versions: 1 2 3 4 5 6 7 8 9 10 11 12 13 14 15 16 17 18 19 20 21 22 23 24 25 26 27 28 29 30 31 32 33 34 35 36 37 38 39 40 41 42 43 44 45 46 47 48 49 50
000
FTUS44 KHGX 161120
TAFIAH
TAF
KIAH 161120Z 1612/1718 14009KT P6SM -RA FEW012 BKN040
      TEMPO 1614/1617 -TSRA BKN025CB
     FM161700 18014KT P6SM VCSH BKN025
     FM161900 18015KT P6SM SCT020 BKN035
     FM170300 15005KT 5SM BR VCSH BKN010
     FM170900 17003KT 2SM -RA BR MIFG OVC005
     FM171500 03006KT 2SM -RA BR MIFG BKN005 BKN025=

USA.gov is the U.S. government's official web portal to all federal, state and local government web resources and services.